sensor_id;sensor_type;location;lat;lon;timestamp;pressure;altitude;pressure_sealevel;temperature;humidity
64211;BME280;50528;48.514;14.394;2022-12-07T00:00:20;93566.63;;;1.87;88.50
64211;BME280;50528;48.514;14.394;2022-12-07T00:01:18;93571.48;;;1.77;88.83
64211;BME280;50528;48.514;14.394;2022-12-07T00:01:52;93570.33;;;1.73;88.81
64211;BME280;50528;48.514;14.394;2022-12-07T00:02:26;93570.50;;;1.77;89.00
64211;BME280;50528;48.514;14.394;2022-12-07T00:03:01;93569.54;;;1.75;88.97
64211;BME280;50528;48.514;14.394;2022-12-07T00:03:39;93573.55;;;1.73;89.31
64211;BME280;50528;48.514;14.394;2022-12-07T00:04:15;93571.33;;;1.74;89.23
64211;BME280;50528;48.514;14.394;2022-12-07T00:04:49;93569.50;;;1.78;89.07
64211;BME280;50528;48.514;14.394;2022-12-07T00:05:22;93572.17;;;1.76;89.10
64211;BME280;50528;48.514;14.394;2022-12-07T00:05:59;93572.08;;;1.72;88.96
64211;BME280;50528;48.514;14.394;2022-12-07T00:06:35;93574.05;;;1.74;89.05
64211;BME280;50528;48.514;14.394;2022-12-07T00:07:08;93573.92;;;1.74;89.33
64211;BME280;50528;48.514;14.394;2022-12-07T00:07:42;93574.03;;;1.71;89.24
64211;BME280;50528;48.514;14.394;2022-12-07T00:08:15;93574.67;;;1.78;89.01
64211;BME280;50528;48.514;14.394;2022-12-07T00:08:49;93574.79;;;1.77;88.84
64211;BME280;50528;48.514;14.394;2022-12-07T00:09:22;93570.84;;;1.77;88.97
64211;BME280;50528;48.514;14.394;2022-12-07T00:09:55;93572.56;;;1.80;88.93
64211;BME280;50528;48.514;14.394;2022-12-07T00:10:29;93568.34;;;1.80;88.81
64211;BME280;50528;48.514;14.394;2022-12-07T00:11:07;93570.61;;;1.78;88.93
64211;BME280;50528;48.514;14.394;2022-12-07T00:11:41;93572.04;;;1.79;89.25
64211;BME280;50528;48.514;14.394;2022-12-07T00:12:15;93569.17;;;1.74;89.16
64211;BME280;50528;48.514;14.394;2022-12-07T00:12:48;93568.70;;;1.76;89.10
64211;BME280;50528;48.514;14.394;2022-12-07T00:13:23;93568.10;;;1.81;88.89
64211;BME280;50528;48.514;14.394;2022-12-07T00:13:58;93567.34;;;1.80;88.51
64211;BME280;50528;48.514;14.394;2022-12-07T00:14:32;93564.95;;;1.84;88.76
64211;BME280;50528;48.514;14.394;2022-12-07T00:15:06;93566.67;;;1.81;88.65
64211;BME280;50528;48.514;14.394;2022-12-07T00:15:39;93567.30;;;1.76;88.56
64211;BME280;50528;48.514;14.394;2022-12-07T00:16:16;93564.09;;;1.79;88.79
64211;BME280;50528;48.514;14.394;2022-12-07T00:16:51;93560.48;;;1.75;89.09
64211;BME280;50528;48.514;14.394;2022-12-07T00:17:24;93564.16;;;1.74;89.22
64211;BME280;50528;48.514;14.394;2022-12-07T00:17:58;93559.20;;;1.72;89.18
64211;BME280;50528;48.514;14.394;2022-12-07T00:18:31;93563.71;;;1.76;89.09
64211;BME280;50528;48.514;14.394;2022-12-07T00:19:05;93555.59;;;1.74;88.88
64211;BME280;50528;48.514;14.394;2022-12-07T00:19:38;93561.17;;;1.81;89.11
64211;BME280;50528;48.514;14.394;2022-12-07T00:20:12;93556.23;;;1.78;88.73
64211;BME280;50528;48.514;14.394;2022-12-07T00:20:45;93561.88;;;1.74;89.32
64211;BME280;50528;48.514;14.394;2022-12-07T00:21:21;93562.60;;;1.81;89.19
64211;BME280;50528;48.514;14.394;2022-12-07T00:21:55;93560.29;;;1.84;88.79
64211;BME280;50528;48.514;14.394;2022-12-07T00:22:29;93558.41;;;1.81;88.44
64211;BME280;50528;48.514;14.394;2022-12-07T00:23:02;93559.55;;;1.75;88.82
64211;BME280;50528;48.514;14.394;2022-12-07T00:23:36;93556.55;;;1.74;89.13
64211;BME280;50528;48.514;14.394;2022-12-07T00:24:11;93557.30;;;1.75;88.87
64211;BME280;50528;48.514;14.394;2022-12-07T00:24:45;93562.80;;;1.73;89.02
64211;BME280;50528;48.514;14.394;2022-12-07T00:25:18;93559.33;;;1.77;88.99
64211;BME280;50528;48.514;14.394;2022-12-07T00:25:52;93558.77;;;1.82;88.76
64211;BME280;50528;48.514;14.394;2022-12-07T00:26:28;93558.54;;;1.80;88.76
64211;BME280;50528;48.514;14.394;2022-12-07T00:27:02;93557.70;;;1.79;88.85
64211;BME280;50528;48.514;14.394;2022-12-07T00:27:35;93562.75;;;1.78;88.92
64211;BME280;50528;48.514;14.394;2022-12-07T00:28:09;93557.65;;;1.77;88.67
64211;BME280;50528;48.514;14.394;2022-12-07T00:28:47;93560.61;;;1.81;88.89
64211;BME280;50528;48.514;14.394;2022-12-07T00:29:21;93558.50;;;1.79;88.62
64211;BME280;50528;48.514;14.394;2022-12-07T00:29:55;93557.61;;;1.73;88.98
64211;BME280;50528;48.514;14.394;2022-12-07T00:30:28;93558.90;;;1.75;89.04
64211;BME280;50528;48.514;14.394;2022-12-07T00:31:07;93563.96;;;1.76;88.72
64211;BME280;50528;48.514;14.394;2022-12-07T00:31:40;93560.80;;;1.78;88.87
64211;BME280;50528;48.514;14.394;2022-12-07T00:32:14;93559.09;;;1.78;88.77
64211;BME280;50528;48.514;14.394;2022-12-07T00:32:47;93558.85;;;1.79;89.03
64211;BME280;50528;48.514;14.394;2022-12-07T00:33:21;93559.34;;;1.73;88.68
64211;BME280;50528;48.514;14.394;2022-12-07T00:33:57;93558.02;;;1.72;88.86
64211;BME280;50528;48.514;14.394;2022-12-07T00:34:30;93561.08;;;1.75;88.94
64211;BME280;50528;48.514;14.394;2022-12-07T00:35:04;93558.70;;;1.75;88.95
64211;BME280;50528;48.514;14.394;2022-12-07T00:35:37;93553.95;;;1.74;88.83
64211;BME280;50528;48.514;14.394;2022-12-07T00:36:14;93555.70;;;1.73;88.93
64211;BME280;50528;48.514;14.394;2022-12-07T00:36:48;93553.88;;;1.71;88.90
64211;BME280;50528;48.514;14.394;2022-12-07T00:37:22;93561.94;;;1.70;89.23
64211;BME280;50528;48.514;14.394;2022-12-07T00:37:55;93561.40;;;1.74;89.07
64211;BME280;50528;48.514;14.394;2022-12-07T00:38:30;93558.66;;;1.74;88.69
64211;BME280;50528;48.514;14.394;2022-12-07T00:39:04;93560.68;;;1.73;89.02
64211;BME280;50528;48.514;14.394;2022-12-07T00:39:37;93559.98;;;1.75;88.95
64211;BME280;50528;48.514;14.394;2022-12-07T00:40:11;93564.36;;;1.78;88.92
64211;BME280;50528;48.514;14.394;2022-12-07T00:40:54;93559.45;;;1.77;88.80
64211;BME280;50528;48.514;14.394;2022-12-07T00:41:28;93563.59;;;1.76;88.99
64211;BME280;50528;48.514;14.394;2022-12-07T00:42:01;93561.67;;;1.72;89.15
64211;BME280;50528;48.514;14.394;2022-12-07T00:42:35;93558.49;;;1.70;88.75
64211;BME280;50528;48.514;14.394;2022-12-07T00:43:08;93557.55;;;1.70;89.31
64211;BME280;50528;48.514;14.394;2022-12-07T00:43:42;93558.69;;;1.71;89.07
64211;BME280;50528;48.514;14.394;2022-12-07T00:44:16;93558.18;;;1.75;89.16
64211;BME280;50528;48.514;14.394;2022-12-07T00:44:49;93559.54;;;1.76;88.99
64211;BME280;50528;48.514;14.394;2022-12-07T00:45:23;93559.48;;;1.73;88.98
64211;BME280;50528;48.514;14.394;2022-12-07T00:45:56;93560.93;;;1.75;89.06
64211;BME280;50528;48.514;14.394;2022-12-07T00:46:30;93562.98;;;1.78;88.87
64211;BME280;50528;48.514;14.394;2022-12-07T00:47:04;93561.52;;;1.79;88.94
64211;BME280;50528;48.514;14.394;2022-12-07T00:47:37;93557.30;;;1.77;89.01
64211;BME280;50528;48.514;14.394;2022-12-07T00:48:11;93560.84;;;1.77;89.09
64211;BME280;50528;48.514;14.394;2022-12-07T00:48:45;93559.73;;;1.78;88.89
64211;BME280;50528;48.514;14.394;2022-12-07T00:49:19;93556.86;;;1.73;89.00
64211;BME280;50528;48.514;14.394;2022-12-07T00:49:52;93555.06;;;1.76;88.84
64211;BME280;50528;48.514;14.394;2022-12-07T00:50:25;93557.10;;;1.79;88.93
64211;BME280;50528;48.514;14.394;2022-12-07T00:50:59;93560.16;;;1.78;88.60
64211;BME280;50528;48.514;14.394;2022-12-07T00:51:32;93558.52;;;1.79;88.81
64211;BME280;50528;48.514;14.394;2022-12-07T00:52:06;93556.98;;;1.77;88.81
64211;BME280;50528;48.514;14.394;2022-12-07T00:52:39;93562.13;;;1.76;88.93
64211;BME280;50528;48.514;14.394;2022-12-07T00:53:16;93555.31;;;1.72;88.98
64211;BME280;50528;48.514;14.394;2022-12-07T00:53:50;93558.98;;;1.75;89.19
64211;BME280;50528;48.514;14.394;2022-12-07T00:54:23;93558.62;;;1.70;88.72
64211;BME280;50528;48.514;14.394;2022-12-07T00:54:57;93558.30;;;1.73;89.16
64211;BME280;50528;48.514;14.394;2022-12-07T00:55:33;93559.29;;;1.72;88.93
64211;BME280;50528;48.514;14.394;2022-12-07T00:56:33;93562.40;;;1.73;88.98
64211;BME280;50528;48.514;14.394;2022-12-07T00:57:06;93563.96;;;1.68;89.05
64211;BME280;50528;48.514;14.394;2022-12-07T00:57:40;93566.74;;;1.69;89.29
64211;BME280;50528;48.514;14.394;2022-12-07T00:58:14;93565.56;;;1.69;89.29
64211;BME280;50528;48.514;14.394;2022-12-07T00:58:56;93562.84;;;1.67;89.34
64211;BME280;50528;48.514;14.394;2022-12-07T00:59:30;93561.16;;;1.65;89.28
64211;BME280;50528;48.514;14.394;2022-12-07T01:00:03;93565.87;;;1.69;89.21
64211;BME280;50528;48.514;14.394;2022-12-07T01:00:39;93567.30;;;1.64;89.30
64211;BME280;50528;48.514;14.394;2022-12-07T01:01:13;93565.23;;;1.60;89.49
64211;BME280;50528;48.514;14.394;2022-12-07T01:01:46;93567.50;;;1.61;89.50
64211;BME280;50528;48.514;14.394;2022-12-07T01:02:19;93563.40;;;1.63;89.61
64211;BME280;50528;48.514;14.394;2022-12-07T01:02:53;93561.92;;;1.65;89.53
64211;BME280;50528;48.514;14.394;2022-12-07T01:03:26;93564.55;;;1.70;89.23
64211;BME280;50528;48.514;14.394;2022-12-07T01:04:00;93557.41;;;1.65;89.54
64211;BME280;50528;48.514;14.394;2022-12-07T01:04:36;93564.79;;;1.66;89.53
64211;BME280;50528;48.514;14.394;2022-12-07T01:05:10;93562.40;;;1.73;89.10
64211;BME280;50528;48.514;14.394;2022-12-07T01:05:51;93564.91;;;1.66;89.23
64211;BME280;50528;48.514;14.394;2022-12-07T01:06:24;93567.30;;;1.65;89.20
64211;BME280;50528;48.514;14.394;2022-12-07T01:06:58;93565.42;;;1.60;89.40
64211;BME280;50528;48.514;14.394;2022-12-07T01:07:31;93568.10;;;1.62;89.50
64211;BME280;50528;48.514;14.394;2022-12-07T01:08:06;93563.36;;;1.63;89.22
64211;BME280;50528;48.514;14.394;2022-12-07T01:08:40;93563.84;;;1.66;89.39
64211;BME280;50528;48.514;14.394;2022-12-07T01:09:13;93567.98;;;1.63;89.49
64211;BME280;50528;48.514;14.394;2022-12-07T01:09:47;93565.48;;;1.64;89.41
64211;BME280;50528;48.514;14.394;2022-12-07T01:10:20;93566.10;;;1.67;89.29
64211;BME280;50528;48.514;14.394;2022-12-07T01:11:02;93558.97;;;1.71;89.16
64211;BME280;50528;48.514;14.394;2022-12-07T01:11:36;93561.25;;;1.71;89.09
64211;BME280;50528;48.514;14.394;2022-12-07T01:12:13;93558.58;;;1.65;89.09
64211;BME280;50528;48.514;14.394;2022-12-07T01:12:46;93560.01;;;1.62;89.48
64211;BME280;50528;48.514;14.394;2022-12-07T01:13:20;93560.61;;;1.61;89.37
64211;BME280;50528;48.514;14.394;2022-12-07T01:13:54;93571.16;;;1.64;89.30
64211;BME280;50528;48.514;14.394;2022-12-07T01:14:28;93568.61;;;1.68;89.17
64211;BME280;50528;48.514;14.394;2022-12-07T01:15:05;93566.02;;;1.67;89.36
64211;BME280;50528;48.514;14.394;2022-12-07T01:15:40;93566.95;;;1.67;89.21
64211;BME280;50528;48.514;14.394;2022-12-07T01:16:16;93566.73;;;1.66;89.19
64211;BME280;50528;48.514;14.394;2022-12-07T01:16:50;93567.11;;;1.69;89.40
64211;BME280;50528;48.514;14.394;2022-12-07T01:17:23;93570.77;;;1.76;88.80
64211;BME280;50528;48.514;14.394;2022-12-07T01:17:57;93571.21;;;1.73;89.06
64211;BME280;50528;48.514;14.394;2022-12-07T01:18:32;93570.85;;;1.76;88.84
64211;BME280;50528;48.514;14.394;2022-12-07T01:19:06;93572.36;;;1.73;88.69
64211;BME280;50528;48.514;14.394;2022-12-07T01:19:39;93572.64;;;1.73;89.01
64211;BME280;50528;48.514;14.394;2022-12-07T01:20:13;93569.46;;;1.72;89.11
64211;BME280;50528;48.514;14.394;2022-12-07T01:21:35;93573.31;;;1.67;89.18
64211;BME280;50528;48.514;14.394;2022-12-07T01:22:10;93570.89;;;1.65;89.09
64211;BME280;50528;48.514;14.394;2022-12-07T01:22:44;93572.08;;;1.65;89.00
64211;BME280;50528;48.514;14.394;2022-12-07T01:23:17;93571.02;;;1.68;88.95
64211;BME280;50528;48.514;14.394;2022-12-07T01:23:51;93570.32;;;1.64;89.20
64211;BME280;50528;48.514;14.394;2022-12-07T01:24:25;93572.35;;;1.65;89.09
64211;BME280;50528;48.514;14.394;2022-12-07T01:24:58;93569.77;;;1.65;89.33
64211;BME280;50528;48.514;14.394;2022-12-07T01:25:31;93571.02;;;1.71;89.28
64211;BME280;50528;48.514;14.394;2022-12-07T01:26:11;93567.10;;;1.66;89.37
64211;BME280;50528;48.514;14.394;2022-12-07T01:26:45;93572.02;;;1.67;89.27
64211;BME280;50528;48.514;14.394;2022-12-07T01:27:21;93570.48;;;1.71;89.46
64211;BME280;50528;48.514;14.394;2022-12-07T01:27:54;93565.43;;;1.74;88.91
64211;BME280;50528;48.514;14.394;2022-12-07T01:28:28;93568.02;;;1.72;88.89
64211;BME280;50528;48.514;14.394;2022-12-07T01:29:01;93567.18;;;1.72;89.11
64211;BME280;50528;48.514;14.394;2022-12-07T01:29:34;93568.27;;;1.72;89.12
64211;BME280;50528;48.514;14.394;2022-12-07T01:30:10;93567.54;;;1.81;88.55
64211;BME280;50528;48.514;14.394;2022-12-07T01:30:44;93569.54;;;1.82;88.41
64211;BME280;50528;48.514;14.394;2022-12-07T01:31:19;93564.86;;;1.73;88.55
64211;BME280;50528;48.514;14.394;2022-12-07T01:31:53;93569.18;;;1.69;88.76
64211;BME280;50528;48.514;14.394;2022-12-07T01:32:27;93569.98;;;1.70;88.98
64211;BME280;50528;48.514;14.394;2022-12-07T01:33:00;93571.48;;;1.77;88.59
64211;BME280;50528;48.514;14.394;2022-12-07T01:33:36;93566.27;;;1.71;88.67
64211;BME280;50528;48.514;14.394;2022-12-07T01:34:10;93568.26;;;1.68;88.69
64211;BME280;50528;48.514;14.394;2022-12-07T01:34:43;93567.30;;;1.66;88.79
64211;BME280;50528;48.514;14.394;2022-12-07T01:35:16;93566.70;;;1.72;88.72
64211;BME280;50528;48.514;14.394;2022-12-07T01:35:50;93567.93;;;1.73;88.57
64211;BME280;50528;48.514;14.394;2022-12-07T01:36:26;93567.42;;;1.70;88.73
64211;BME280;50528;48.514;14.394;2022-12-07T01:36:59;93567.86;;;1.68;88.81
64211;BME280;50528;48.514;14.394;2022-12-07T01:37:37;93566.72;;;1.70;88.63
64211;BME280;50528;48.514;14.394;2022-12-07T01:38:11;93566.30;;;1.76;88.55
64211;BME280;50528;48.514;14.394;2022-12-07T01:38:46;93568.23;;;1.73;88.38
64211;BME280;50528;48.514;14.394;2022-12-07T01:39:20;93567.45;;;1.73;88.53
64211;BME280;50528;48.514;14.394;2022-12-07T01:39:54;93561.73;;;1.77;88.29
64211;BME280;50528;48.514;14.394;2022-12-07T01:40:27;93561.72;;;1.73;88.35
64211;BME280;50528;48.514;14.394;2022-12-07T01:41:01;93558.26;;;1.73;88.59
64211;BME280;50528;48.514;14.394;2022-12-07T01:41:38;93558.77;;;1.72;88.29
64211;BME280;50528;48.514;14.394;2022-12-07T01:42:13;93555.23;;;1.70;88.77
64211;BME280;50528;48.514;14.394;2022-12-07T01:42:47;93555.78;;;1.71;88.70
64211;BME280;50528;48.514;14.394;2022-12-07T01:43:21;93559.38;;;1.71;88.63
64211;BME280;50528;48.514;14.394;2022-12-07T01:45:52;93560.25;;;1.67;88.52
64211;BME280;50528;48.514;14.394;2022-12-07T01:46:25;93554.16;;;1.68;88.85
64211;BME280;50528;48.514;14.394;2022-12-07T01:47:01;93553.00;;;1.64;88.72
64211;BME280;50528;48.514;14.394;2022-12-07T01:47:35;93552.45;;;1.63;88.59
64211;BME280;50528;48.514;14.394;2022-12-07T01:48:11;93552.45;;;1.65;88.95
64211;BME280;50528;48.514;14.394;2022-12-07T01:48:45;93555.47;;;1.71;88.71
64211;BME280;50528;48.514;14.394;2022-12-07T01:49:55;93545.38;;;1.67;88.97
64211;BME280;50528;48.514;14.394;2022-12-07T01:50:29;93543.67;;;1.68;88.80
64211;BME280;50528;48.514;14.394;2022-12-07T01:51:08;93546.30;;;1.71;88.65
64211;BME280;50528;48.514;14.394;2022-12-07T01:51:43;93545.89;;;1.71;89.04
64211;BME280;50528;48.514;14.394;2022-12-07T01:52:21;93544.11;;;1.74;88.93
64211;BME280;50528;48.514;14.394;2022-12-07T01:52:57;93550.53;;;1.77;88.50
64211;BME280;50528;48.514;14.394;2022-12-07T01:53:36;93549.80;;;1.81;88.42
64211;BME280;50528;48.514;14.394;2022-12-07T01:54:11;93549.96;;;1.78;88.31
64211;BME280;50528;48.514;14.394;2022-12-07T01:54:47;93550.61;;;1.76;88.22
64211;BME280;50528;48.514;14.394;2022-12-07T01:55:23;93548.10;;;1.77;88.45
64211;BME280;50528;48.514;14.394;2022-12-07T01:55:57;93546.81;;;1.75;88.45
64211;BME280;50528;48.514;14.394;2022-12-07T01:56:33;93548.48;;;1.79;88.27
64211;BME280;50528;48.514;14.394;2022-12-07T01:57:07;93544.70;;;1.76;88.42
64211;BME280;50528;48.514;14.394;2022-12-07T01:57:44;93547.50;;;1.78;88.34
64211;BME280;50528;48.514;14.394;2022-12-07T01:58:20;93539.40;;;1.73;88.34
64211;BME280;50528;48.514;14.394;2022-12-07T01:58:54;93543.27;;;1.77;88.36
64211;BME280;50528;48.514;14.394;2022-12-07T01:59:29;93541.05;;;1.75;88.51
64211;BME280;50528;48.514;14.394;2022-12-07T02:00:06;93539.41;;;1.74;88.46
64211;BME280;50528;48.514;14.394;2022-12-07T02:00:46;93538.04;;;1.72;88.37
64211;BME280;50528;48.514;14.394;2022-12-07T02:01:19;93543.30;;;1.75;88.48
64211;BME280;50528;48.514;14.394;2022-12-07T02:01:54;93540.92;;;1.76;88.17
64211;BME280;50528;48.514;14.394;2022-12-07T02:02:38;93542.71;;;1.77;88.19
64211;BME280;50528;48.514;14.394;2022-12-07T02:04:21;93545.42;;;1.74;88.14
64211;BME280;50528;48.514;14.394;2022-12-07T02:04:55;93539.73;;;1.71;87.84
64211;BME280;50528;48.514;14.394;2022-12-07T02:05:31;93536.17;;;1.71;87.89
64211;BME280;50528;48.514;14.394;2022-12-07T02:06:07;93537.38;;;1.70;87.66
64211;BME280;50528;48.514;14.394;2022-12-07T02:06:41;93531.56;;;1.66;87.92
64211;BME280;50528;48.514;14.394;2022-12-07T02:07:17;93529.45;;;1.70;87.81
64211;BME280;50528;48.514;14.394;2022-12-07T02:07:53;93534.83;;;1.73;87.72
64211;BME280;50528;48.514;14.394;2022-12-07T02:08:28;93531.09;;;1.70;87.66
64211;BME280;50528;48.514;14.394;2022-12-07T02:09:01;93535.23;;;1.64;87.68
64211;BME280;50528;48.514;14.394;2022-12-07T02:09:35;93536.06;;;1.62;87.96
64211;BME280;50528;48.514;14.394;2022-12-07T02:10:23;93538.37;;;1.61;88.04
64211;BME280;50528;48.514;14.394;2022-12-07T02:10:57;93538.82;;;1.65;87.74
64211;BME280;50528;48.514;14.394;2022-12-07T02:11:31;93538.53;;;1.62;87.83
64211;BME280;50528;48.514;14.394;2022-12-07T02:12:05;93537.54;;;1.60;88.08
64211;BME280;50528;48.514;14.394;2022-12-07T02:12:38;93538.28;;;1.65;87.77
64211;BME280;50528;48.514;14.394;2022-12-07T02:13:15;93532.95;;;1.62;87.86
64211;BME280;50528;48.514;14.394;2022-12-07T02:13:50;93529.61;;;1.60;87.97
64211;BME280;50528;48.514;14.394;2022-12-07T02:14:24;93531.43;;;1.67;87.90
64211;BME280;50528;48.514;14.394;2022-12-07T02:14:58;93530.44;;;1.67;87.70
64211;BME280;50528;48.514;14.394;2022-12-07T02:17:12;93538.45;;;1.67;87.71
64211;BME280;50528;48.514;14.394;2022-12-07T02:18:01;93530.25;;;1.57;87.80
64211;BME280;50528;48.514;14.394;2022-12-07T02:19:04;93523.91;;;1.52;87.90
64211;BME280;50528;48.514;14.394;2022-12-07T02:20:30;93528.05;;;1.56;87.88
64211;BME280;50528;48.514;14.394;2022-12-07T02:22:01;93531.64;;;1.52;87.93
64211;BME280;50528;48.514;14.394;2022-12-07T02:22:54;93526.05;;;1.50;87.99
64211;BME280;50528;48.514;14.394;2022-12-07T02:24:10;93526.34;;;1.46;87.88
64211;BME280;50528;48.514;14.394;2022-12-07T02:29:22;93530.56;;;1.41;88.14
64211;BME280;50528;48.514;14.394;2022-12-07T02:29:30;93530.31;;;1.37;88.18
64211;BME280;50528;48.514;14.394;2022-12-07T02:30:12;93531.44;;;1.39;88.28
64211;BME280;50528;48.514;14.394;2022-12-07T02:30:48;93529.27;;;1.39;88.09
64211;BME280;50528;48.514;14.394;2022-12-07T02:31:24;93532.48;;;1.39;88.36
64211;BME280;50528;48.514;14.394;2022-12-07T02:33:04;93531.75;;;1.38;88.23
64211;BME280;50528;48.514;14.394;2022-12-07T02:33:50;93529.36;;;1.38;88.14
64211;BME280;50528;48.514;14.394;2022-12-07T02:34:42;93531.54;;;1.36;88.42
64211;BME280;50528;48.514;14.394;2022-12-07T02:35:19;93531.98;;;1.35;88.52
64211;BME280;50528;48.514;14.394;2022-12-07T02:36:01;93531.08;;;1.37;88.38
64211;BME280;50528;48.514;14.394;2022-12-07T02:36:45;93531.48;;;1.40;88.32
64211;BME280;50528;48.514;14.394;2022-12-07T02:38:50;93535.95;;;1.42;88.18
64211;BME280;50528;48.514;14.394;2022-12-07T02:39:53;93536.52;;;1.45;88.14
64211;BME280;50528;48.514;14.394;2022-12-07T02:40:31;93536.09;;;1.38;87.99
64211;BME280;50528;48.514;14.394;2022-12-07T02:41:21;93536.89;;;1.44;88.08
64211;BME280;50528;48.514;14.394;2022-12-07T02:42:01;93541.48;;;1.43;87.99
64211;BME280;50528;48.514;14.394;2022-12-07T02:42:42;93539.33;;;1.41;87.97
64211;BME280;50528;48.514;14.394;2022-12-07T02:43:28;93540.20;;;1.45;87.79
64211;BME280;50528;48.514;14.394;2022-12-07T02:44:12;93543.02;;;1.45;87.85
64211;BME280;50528;48.514;14.394;2022-12-07T02:44:47;93539.73;;;1.42;87.68
64211;BME280;50528;48.514;14.394;2022-12-07T02:45:22;93544.15;;;1.45;87.49
64211;BME280;50528;48.514;14.394;2022-12-07T02:46:04;93542.64;;;1.51;87.65
64211;BME280;50528;48.514;14.394;2022-12-07T02:46:49;93540.92;;;1.46;87.36
64211;BME280;50528;48.514;14.394;2022-12-07T02:47:24;93545.13;;;1.43;87.48
64211;BME280;50528;48.514;14.394;2022-12-07T02:47:59;93546.61;;;1.46;87.41
64211;BME280;50528;48.514;14.394;2022-12-07T02:48:34;93541.95;;;1.47;87.36
64211;BME280;50528;48.514;14.394;2022-12-07T02:50:48;93537.45;;;1.41;87.53
64211;BME280;50528;48.514;14.394;2022-12-07T02:51:22;93538.20;;;1.34;87.72
64211;BME280;50528;48.514;14.394;2022-12-07T02:51:57;93536.84;;;1.36;87.67
64211;BME280;50528;48.514;14.394;2022-12-07T02:52:32;93540.69;;;1.41;87.62
64211;BME280;50528;48.514;14.394;2022-12-07T02:53:05;93543.02;;;1.46;87.31
64211;BME280;50528;48.514;14.394;2022-12-07T02:53:41;93541.95;;;1.42;87.34
64211;BME280;50528;48.514;14.394;2022-12-07T02:54:17;93542.20;;;1.47;87.43
64211;BME280;50528;48.514;14.394;2022-12-07T02:54:51;93545.54;;;1.42;87.46
64211;BME280;50528;48.514;14.394;2022-12-07T02:55:30;93543.27;;;1.40;87.61
64211;BME280;50528;48.514;14.394;2022-12-07T02:57:49;93539.04;;;1.39;87.58
64211;BME280;50528;48.514;14.394;2022-12-07T03:00:13;93543.59;;;1.40;88.18
64211;BME280;50528;48.514;14.394;2022-12-07T03:00:58;93538.48;;;1.38;87.90
64211;BME280;50528;48.514;14.394;2022-12-07T03:01:54;93538.41;;;1.34;87.71
64211;BME280;50528;48.514;14.394;2022-12-07T03:02:58;93538.84;;;1.29;88.09
64211;BME280;50528;48.514;14.394;2022-12-07T03:03:35;93535.80;;;1.24;88.39
64211;BME280;50528;48.514;14.394;2022-12-07T03:04:59;93535.61;;;1.30;88.30
64211;BME280;50528;48.514;14.394;2022-12-07T03:06:42;93541.33;;;1.26;88.86
64211;BME280;50528;48.514;14.394;2022-12-07T03:08:06;93539.30;;;1.24;88.72
64211;BME280;50528;48.514;14.394;2022-12-07T03:08:54;93540.70;;;1.26;88.74
64211;BME280;50528;48.514;14.394;2022-12-07T03:09:53;93538.72;;;1.34;88.59
64211;BME280;50528;48.514;14.394;2022-12-07T03:11:42;93536.28;;;1.30;88.10
64211;BME280;50528;48.514;14.394;2022-12-07T03:12:21;93530.89;;;1.18;88.29
64211;BME280;50528;48.514;14.394;2022-12-07T03:14:21;93532.89;;;1.21;88.98
64211;BME280;50528;48.514;14.394;2022-12-07T03:15:05;93534.21;;;1.23;88.64
64211;BME280;50528;48.514;14.394;2022-12-07T03:16:43;93534.06;;;1.30;88.73
64211;BME280;50528;48.514;14.394;2022-12-07T03:17:25;93534.14;;;1.33;88.60
64211;BME280;50528;48.514;14.394;2022-12-07T03:18:00;93535.00;;;1.34;88.30
64211;BME280;50528;48.514;14.394;2022-12-07T03:18:39;93534.58;;;1.29;88.43
64211;BME280;50528;48.514;14.394;2022-12-07T03:19:18;93530.51;;;1.24;88.48
64211;BME280;50528;48.514;14.394;2022-12-07T03:19:56;93528.59;;;1.20;88.56
64211;BME280;50528;48.514;14.394;2022-12-07T03:20:32;93528.75;;;1.24;88.87
64211;BME280;50528;48.514;14.394;2022-12-07T03:21:14;93530.63;;;1.31;88.65
64211;BME280;50528;48.514;14.394;2022-12-07T03:21:57;93528.27;;;1.31;88.57
64211;BME280;50528;48.514;14.394;2022-12-07T03:22:34;93528.17;;;1.33;88.62
64211;BME280;50528;48.514;14.394;2022-12-07T03:23:10;93530.27;;;1.32;88.45
64211;BME280;50528;48.514;14.394;2022-12-07T03:23:49;93533.15;;;1.30;88.36
64211;BME280;50528;48.514;14.394;2022-12-07T03:24:49;93535.73;;;1.30;88.53
64211;BME280;50528;48.514;14.394;2022-12-07T03:25:25;93533.65;;;1.28;88.97
64211;BME280;50528;48.514;14.394;2022-12-07T03:26:00;93532.50;;;1.24;88.51
64211;BME280;50528;48.514;14.394;2022-12-07T03:26:37;93528.48;;;1.25;88.75
64211;BME280;50528;48.514;14.394;2022-12-07T03:27:34;93527.84;;;1.24;88.47
64211;BME280;50528;48.514;14.394;2022-12-07T03:28:10;93534.27;;;1.20;88.98
64211;BME280;50528;48.514;14.394;2022-12-07T03:28:52;93535.81;;;1.28;88.95
64211;BME280;50528;48.514;14.394;2022-12-07T03:29:31;93528.36;;;1.29;88.26
64211;BME280;50528;48.514;14.394;2022-12-07T03:30:08;93534.29;;;1.24;88.75
64211;BME280;50528;48.514;14.394;2022-12-07T03:30:50;93531.41;;;1.23;88.82
64211;BME280;50528;48.514;14.394;2022-12-07T03:31:35;93536.45;;;1.33;88.52
64211;BME280;50528;48.514;14.394;2022-12-07T03:32:19;93531.50;;;1.36;88.09
64211;BME280;50528;48.514;14.394;2022-12-07T03:33:11;93525.21;;;1.19;88.76
64211;BME280;50528;48.514;14.394;2022-12-07T03:35:03;93532.73;;;1.22;88.61
64211;BME280;50528;48.514;14.394;2022-12-07T03:35:45;93532.64;;;1.18;88.87
64211;BME280;50528;48.514;14.394;2022-12-07T03:36:52;93535.20;;;1.20;88.84
64211;BME280;50528;48.514;14.394;2022-12-07T03:37:34;93532.61;;;1.18;88.74
64211;BME280;50528;48.514;14.394;2022-12-07T03:39:35;93531.48;;;1.12;88.93
64211;BME280;50528;48.514;14.394;2022-12-07T03:40:33;93531.56;;;1.10;89.22
64211;BME280;50528;48.514;14.394;2022-12-07T03:41:47;93535.03;;;1.13;89.11
64211;BME280;50528;48.514;14.394;2022-12-07T03:42:21;93528.65;;;1.14;89.08
64211;BME280;50528;48.514;14.394;2022-12-07T03:42:55;93526.86;;;1.13;89.18
64211;BME280;50528;48.514;14.394;2022-12-07T03:43:29;93530.89;;;1.21;88.95
64211;BME280;50528;48.514;14.394;2022-12-07T03:44:03;93528.77;;;1.28;88.66